Denver, Colorado
Current Conditions -  °F | °C
As of 5:58 PM on Saturday 20 Dec 2014 (Local Time) from KBKF Reporting Station
Broken Clouds Broken Clouds  
Wind Chill: -3°   Ceiling: 20000
Heat Index:   Visibility: 10mi
Dew Point: -5°   Wind: 9mph
Humidity: 65%   Direction: 160°SSE
Pressure: 29.95"   Gusts: NA
Location:  39.74°N, 104.99°W
Report Text: KBKF 210058Z 16008KT 10SM SCT100 BKN200 01/M05 A2995 RMK AO2A SLP151 T00081051
Loading
Personal Weather Stations






























Interactive Weather Map New forecast layout! Learn more

10-Day Weather Forecast

Advertisements
Track Severe Weather on mobile